sensor_id;sensor_type;location;lat;lon;timestamp;temperature;humidity
6740;DHT22;3407;49.882;10.920;2022-12-16T00:03:52;-1.90;1.00
6740;DHT22;3407;49.882;10.920;2022-12-16T00:08:48;-1.80;1.00
6740;DHT22;3407;49.882;10.920;2022-12-16T00:13:43;-1.80;1.00
6740;DHT22;3407;49.882;10.920;2022-12-16T00:18:40;-1.80;1.00
6740;DHT22;3407;49.882;10.920;2022-12-16T00:23:35;-1.70;1.00
6740;DHT22;3407;49.882;10.920;2022-12-16T00:28:33;-1.70;1.00
6740;DHT22;3407;49.882;10.920;2022-12-16T00:33:29;-1.60;1.00
6740;DHT22;3407;49.882;10.920;2022-12-16T00:38:25;-1.60;1.00
6740;DHT22;3407;49.882;10.920;2022-12-16T00:43:21;-1.60;1.00
6740;DHT22;3407;49.882;10.920;2022-12-16T00:48:16;-1.60;1.00
6740;DHT22;3407;49.882;10.920;2022-12-16T00:53:12;-1.50;1.00
6740;DHT22;3407;49.882;10.920;2022-12-16T00:58:08;-1.50;1.00
6740;DHT22;3407;49.882;10.920;2022-12-16T01:03:03;-1.50;1.00
6740;DHT22;3407;49.882;10.920;2022-12-16T01:07:59;-1.50;1.00
6740;DHT22;3407;49.882;10.920;2022-12-16T01:12:54;-1.40;1.00
6740;DHT22;3407;49.882;10.920;2022-12-16T01:17:50;-1.40;1.00
6740;DHT22;3407;49.882;10.920;2022-12-16T01:22:45;-1.40;1.00
6740;DHT22;3407;49.882;10.920;2022-12-16T01:27:41;-1.30;1.00
6740;DHT22;3407;49.882;10.920;2022-12-16T01:32:36;-1.30;1.00
6740;DHT22;3407;49.882;10.920;2022-12-16T01:37:32;-1.30;1.00
6740;DHT22;3407;49.882;10.920;2022-12-16T01:42:28;-1.20;1.00
6740;DHT22;3407;49.882;10.920;2022-12-16T01:47:28;-1.20;1.00
6740;DHT22;3407;49.882;10.920;2022-12-16T01:52:35;-1.10;1.00
6740;DHT22;3407;49.882;10.920;2022-12-16T01:57:36;-1.20;99.90
6740;DHT22;3407;49.882;10.920;2022-12-16T02:02:33;-1.20;99.90
6740;DHT22;3407;49.882;10.920;2022-12-16T02:07:29;-1.20;99.90
6740;DHT22;3407;49.882;10.920;2022-12-16T02:12:27;-1.20;99.90
6740;DHT22;3407;49.882;10.920;2022-12-16T02:17:40;-1.10;99.90
6740;DHT22;3407;49.882;10.920;2022-12-16T02:33:24;-1.10;99.90
6740;DHT22;3407;49.882;10.920;2022-12-16T02:38:31;-1.10;99.90
6740;DHT22;3407;49.882;10.920;2022-12-16T02:48:39;-1.00;99.90
6740;DHT22;3407;49.882;10.920;2022-12-16T02:53:37;-1.10;99.90
6740;DHT22;3407;49.882;10.920;2022-12-16T02:58:56;-1.10;99.90
6740;DHT22;3407;49.882;10.920;2022-12-16T03:04:11;-1.10;1.00
6740;DHT22;3407;49.882;10.920;2022-12-16T03:09:11;-1.10;1.00
6740;DHT22;3407;49.882;10.920;2022-12-16T03:14:09;-1.20;1.00
6740;DHT22;3407;49.882;10.920;2022-12-16T03:19:09;-1.30;1.00
6740;DHT22;3407;49.882;10.920;2022-12-16T03:24:07;-1.30;1.00
6740;DHT22;3407;49.882;10.920;2022-12-16T03:29:09;-1.40;1.00
6740;DHT22;3407;49.882;10.920;2022-12-16T03:34:26;-1.30;1.00
6740;DHT22;3407;49.882;10.920;2022-12-16T03:39:25;-1.30;1.00
6740;DHT22;3407;49.882;10.920;2022-12-16T03:44:22;-1.30;1.00
6740;DHT22;3407;49.882;10.920;2022-12-16T03:49:20;-1.30;1.00
6740;DHT22;3407;49.882;10.920;2022-12-16T03:54:16;-1.30;1.00
6740;DHT22;3407;49.882;10.920;2022-12-16T03:59:13;-1.20;1.00
6740;DHT22;3407;49.882;10.920;2022-12-16T04:04:09;-1.20;1.00
6740;DHT22;3407;49.882;10.920;2022-12-16T04:09:05;-1.20;1.00
6740;DHT22;3407;49.882;10.920;2022-12-16T04:14:01;-1.20;1.00
6740;DHT22;3407;49.882;10.920;2022-12-16T04:19:21;-1.10;1.00
6740;DHT22;3407;49.882;10.920;2022-12-16T04:24:35;-1.10;1.00
6740;DHT22;3407;49.882;10.920;2022-12-16T04:29:31;-1.00;1.00
6740;DHT22;3407;49.882;10.920;2022-12-16T04:34:27;-1.00;1.00
6740;DHT22;3407;49.882;10.920;2022-12-16T04:39:23;-0.90;1.00
6740;DHT22;3407;49.882;10.920;2022-12-16T04:44:37;-0.90;1.00
6740;DHT22;3407;49.882;10.920;2022-12-16T04:49:52;-0.90;1.00
6740;DHT22;3407;49.882;10.920;2022-12-16T04:55:06;-0.90;1.00
6740;DHT22;3407;49.882;10.920;2022-12-16T05:00:21;-0.90;1.00
6740;DHT22;3407;49.882;10.920;2022-12-16T05:05:35;-0.90;1.00
6740;DHT22;3407;49.882;10.920;2022-12-16T05:10:49;-1.00;94.50
6740;DHT22;3407;49.882;10.920;2022-12-16T05:16:03;-1.10;90.60
6740;DHT22;3407;49.882;10.920;2022-12-16T05:21:19;-1.10;62.80
6740;DHT22;3407;49.882;10.920;2022-12-16T05:26:33;-1.10;99.90
6740;DHT22;3407;49.882;10.920;2022-12-16T05:31:47;-1.10;99.90
6740;DHT22;3407;49.882;10.920;2022-12-16T05:37:01;-1.10;99.90
6740;DHT22;3407;49.882;10.920;2022-12-16T05:42:15;-1.10;90.30
6740;DHT22;3407;49.882;10.920;2022-12-16T05:47:29;-1.10;1.00
6740;DHT22;3407;49.882;10.920;2022-12-16T05:52:51;-1.10;99.90
6740;DHT22;3407;49.882;10.920;2022-12-16T05:58:06;-1.10;1.00
6740;DHT22;3407;49.882;10.920;2022-12-16T06:03:21;-1.10;99.90
6740;DHT22;3407;49.882;10.920;2022-12-16T06:08:35;-1.20;1.00
6740;DHT22;3407;49.882;10.920;2022-12-16T06:13:49;-1.30;1.00
6740;DHT22;3407;49.882;10.920;2022-12-16T06:19:03;-1.30;1.00
6740;DHT22;3407;49.882;10.920;2022-12-16T06:24:17;-1.30;81.30
6740;DHT22;3407;49.882;10.920;2022-12-16T06:29:31;-1.40;99.90
6740;DHT22;3407;49.882;10.920;2022-12-16T06:34:45;-1.50;99.90
6740;DHT22;3407;49.882;10.920;2022-12-16T06:39:59;-1.50;99.90
6740;DHT22;3407;49.882;10.920;2022-12-16T06:45:13;-1.50;99.90
6740;DHT22;3407;49.882;10.920;2022-12-16T06:50:28;-1.50;74.90
6740;DHT22;3407;49.882;10.920;2022-12-16T06:55:42;-1.60;1.00
6740;DHT22;3407;49.882;10.920;2022-12-16T07:00:56;-1.50;1.00
6740;DHT22;3407;49.882;10.920;2022-12-16T07:06:10;-1.50;1.00
6740;DHT22;3407;49.882;10.920;2022-12-16T07:11:24;-1.50;36.30
6740;DHT22;3407;49.882;10.920;2022-12-16T07:16:38;-1.50;1.00
6740;DHT22;3407;49.882;10.920;2022-12-16T07:21:52;-1.50;99.90
6740;DHT22;3407;49.882;10.920;2022-12-16T07:27:06;-1.50;65.60
6740;DHT22;3407;49.882;10.920;2022-12-16T07:32:20;-1.40;1.00
6740;DHT22;3407;49.882;10.920;2022-12-16T07:37:36;-1.40;1.00
6740;DHT22;3407;49.882;10.920;2022-12-16T07:42:51;-1.40;1.00
6740;DHT22;3407;49.882;10.920;2022-12-16T07:48:06;-1.40;1.00
6740;DHT22;3407;49.882;10.920;2022-12-16T07:53:21;-1.30;70.10
6740;DHT22;3407;49.882;10.920;2022-12-16T07:58:36;-1.30;99.90
6740;DHT22;3407;49.882;10.920;2022-12-16T08:03:50;-1.20;1.00
6740;DHT22;3407;49.882;10.920;2022-12-16T08:09:04;-1.10;99.90
6740;DHT22;3407;49.882;10.920;2022-12-16T08:14:18;-1.10;99.90
6740;DHT22;3407;49.882;10.920;2022-12-16T08:19:33;-1.00;2.30
6740;DHT22;3407;49.882;10.920;2022-12-16T08:24:46;-0.90;1.00
6740;DHT22;3407;49.882;10.920;2022-12-16T08:30:01;-0.90;1.00
6740;DHT22;3407;49.882;10.920;2022-12-16T08:35:15;-1.00;1.00
6740;DHT22;3407;49.882;10.920;2022-12-16T08:40:29;-0.90;99.90
6740;DHT22;3407;49.882;10.920;2022-12-16T08:45:43;-0.80;28.80
6740;DHT22;3407;49.882;10.920;2022-12-16T08:51:00;-0.80;99.90
6740;DHT22;3407;49.882;10.920;2022-12-16T08:56:15;-0.90;99.90
6740;DHT22;3407;49.882;10.920;2022-12-16T09:01:29;-0.80;1.00
6740;DHT22;3407;49.882;10.920;2022-12-16T09:06:43;-0.70;1.00
6740;DHT22;3407;49.882;10.920;2022-12-16T09:11:57;-0.80;99.90
6740;DHT22;3407;49.882;10.920;2022-12-16T09:17:11;-0.80;1.00
6740;DHT22;3407;49.882;10.920;2022-12-16T09:22:25;-0.90;99.90
6740;DHT22;3407;49.882;10.920;2022-12-16T09:27:39;-0.80;99.90
6740;DHT22;3407;49.882;10.920;2022-12-16T09:32:53;-0.70;99.90
6740;DHT22;3407;49.882;10.920;2022-12-16T09:38:07;-0.60;1.00
6740;DHT22;3407;49.882;10.920;2022-12-16T09:54:16;-0.10;99.90
6740;DHT22;3407;49.882;10.920;2022-12-16T09:59:39;0.00;99.90
6740;DHT22;3407;49.882;10.920;2022-12-16T10:04:54;0.10;1.00
6740;DHT22;3407;49.882;10.920;2022-12-16T10:10:50;0.20;1.00
6740;DHT22;3407;49.882;10.920;2022-12-16T10:16:45;0.30;1.00
6740;DHT22;3407;49.882;10.920;2022-12-16T10:22:17;0.30;1.00
6740;DHT22;3407;49.882;10.920;2022-12-16T10:27:48;0.10;1.00
6740;DHT22;3407;49.882;10.920;2022-12-16T10:33:03;0.10;1.00
6740;DHT22;3407;49.882;10.920;2022-12-16T10:38:27;0.20;1.00
6740;DHT22;3407;49.882;10.920;2022-12-16T10:43:46;0.30;99.90
6740;DHT22;3407;49.882;10.920;2022-12-16T10:49:00;0.30;99.90
6740;DHT22;3407;49.882;10.920;2022-12-16T10:59:41;0.60;99.90
6740;DHT22;3407;49.882;10.920;2022-12-16T11:04:56;0.70;99.90
6740;DHT22;3407;49.882;10.920;2022-12-16T11:10:26;0.70;99.90
6740;DHT22;3407;49.882;10.920;2022-12-16T11:15:43;0.70;84.10
6740;DHT22;3407;49.882;10.920;2022-12-16T11:26:28;0.70;99.90
6740;DHT22;3407;49.882;10.920;2022-12-16T11:32:05;0.90;1.00
6740;DHT22;3407;49.882;10.920;2022-12-16T11:37:21;0.90;1.00
6740;DHT22;3407;49.882;10.920;2022-12-16T11:42:35;0.90;1.00
6740;DHT22;3407;49.882;10.920;2022-12-16T11:47:55;0.90;1.00
6740;DHT22;3407;49.882;10.920;2022-12-16T11:58:49;0.90;1.00
6740;DHT22;3407;49.882;10.920;2022-12-16T12:04:05;0.80;1.00
6740;DHT22;3407;49.882;10.920;2022-12-16T12:09:25;0.90;2.60
6740;DHT22;3407;49.882;10.920;2022-12-16T12:14:46;0.90;1.00
6740;DHT22;3407;49.882;10.920;2022-12-16T12:20:06;0.80;1.00
6740;DHT22;3407;49.882;10.920;2022-12-16T12:25:41;0.80;42.60
6740;DHT22;3407;49.882;10.920;2022-12-16T12:31:05;1.00;99.90
6740;DHT22;3407;49.882;10.920;2022-12-16T12:36:39;1.10;86.70
6740;DHT22;3407;49.882;10.920;2022-12-16T12:47:59;1.10;99.90
6740;DHT22;3407;49.882;10.920;2022-12-16T12:58:31;1.40;1.00
6740;DHT22;3407;49.882;10.920;2022-12-16T13:04:00;1.50;1.00
6740;DHT22;3407;49.882;10.920;2022-12-16T13:09:31;1.60;1.00
6740;DHT22;3407;49.882;10.920;2022-12-16T13:20:49;1.10;1.00
6740;DHT22;3407;49.882;10.920;2022-12-16T13:25:49;1.20;1.00
6740;DHT22;3407;49.882;10.920;2022-12-16T13:31:04;1.40;1.00
6740;DHT22;3407;49.882;10.920;2022-12-16T13:36:19;1.60;1.00
6740;DHT22;3407;49.882;10.920;2022-12-16T13:41:48;1.60;1.00
6740;DHT22;3407;49.882;10.920;2022-12-16T13:47:57;1.40;1.00
6740;DHT22;3407;49.882;10.920;2022-12-16T13:53:03;1.20;1.00
6740;DHT22;3407;49.882;10.920;2022-12-16T13:58:40;0.80;1.00
6740;DHT22;3407;49.882;10.920;2022-12-16T14:03:56;0.70;1.00
6740;DHT22;3407;49.882;10.920;2022-12-16T14:09:31;0.60;1.00
6740;DHT22;3407;49.882;10.920;2022-12-16T14:14:51;0.40;1.00
6740;DHT22;3407;49.882;10.920;2022-12-16T14:25:33;0.40;1.00
6740;DHT22;3407;49.882;10.920;2022-12-16T14:30:47;0.20;1.00
6740;DHT22;3407;49.882;10.920;2022-12-16T14:36:01;0.10;1.00
6740;DHT22;3407;49.882;10.920;2022-12-16T14:41:19;0.10;1.00
6740;DHT22;3407;49.882;10.920;2022-12-16T14:46:34;0.30;99.90
6740;DHT22;3407;49.882;10.920;2022-12-16T14:51:49;0.00;14.60
6740;DHT22;3407;49.882;10.920;2022-12-16T14:57:03;-0.10;99.90
6740;DHT22;3407;49.882;10.920;2022-12-16T15:02:39;-0.20;99.90
6740;DHT22;3407;49.882;10.920;2022-12-16T15:07:56;-0.30;99.90
6740;DHT22;3407;49.882;10.920;2022-12-16T15:13:16;-0.40;99.90
6740;DHT22;3407;49.882;10.920;2022-12-16T15:18:38;-0.50;99.90
6740;DHT22;3407;49.882;10.920;2022-12-16T15:23:53;-0.60;99.90
6740;DHT22;3407;49.882;10.920;2022-12-16T15:29:33;-0.60;99.90
6740;DHT22;3407;49.882;10.920;2022-12-16T15:34:48;-0.60;1.00
6740;DHT22;3407;49.882;10.920;2022-12-16T15:40:02;-0.70;99.90
6740;DHT22;3407;49.882;10.920;2022-12-16T15:45:29;-0.80;1.00
6740;DHT22;3407;49.882;10.920;2022-12-16T15:50:52;-0.90;1.00
6740;DHT22;3407;49.882;10.920;2022-12-16T15:57:01;-1.00;1.00
6740;DHT22;3407;49.882;10.920;2022-12-16T16:01:49;-1.10;1.00
6740;DHT22;3407;49.882;10.920;2022-12-16T16:07:16;-1.30;1.00
6740;DHT22;3407;49.882;10.920;2022-12-16T16:12:31;-1.40;1.00
6740;DHT22;3407;49.882;10.920;2022-12-16T16:17:47;-1.50;1.00
6740;DHT22;3407;49.882;10.920;2022-12-16T16:23:03;-1.70;1.00
6740;DHT22;3407;49.882;10.920;2022-12-16T16:28:17;-1.70;1.00
6740;DHT22;3407;49.882;10.920;2022-12-16T16:33:31;-1.80;48.90
6740;DHT22;3407;49.882;10.920;2022-12-16T20:16:57;-2.80;2.80
6740;DHT22;3407;49.882;10.920;2022-12-16T20:22:11;-2.80;99.90
6740;DHT22;3407;49.882;10.920;2022-12-16T20:27:25;-2.80;99.90
6740;DHT22;3407;49.882;10.920;2022-12-16T20:32:39;-2.80;1.00
6740;DHT22;3407;49.882;10.920;2022-12-16T20:37:53;-2.80;1.00
6740;DHT22;3407;49.882;10.920;2022-12-16T20:43:07;-2.80;99.90
6740;DHT22;3407;49.882;10.920;2022-12-16T20:48:21;-2.90;99.90
6740;DHT22;3407;49.882;10.920;2022-12-16T20:53:35;-2.90;99.90
6740;DHT22;3407;49.882;10.920;2022-12-16T20:58:49;-3.00;99.90
6740;DHT22;3407;49.882;10.920;2022-12-16T21:04:04;-3.00;1.00
6740;DHT22;3407;49.882;10.920;2022-12-16T21:09:18;-3.00;46.60
6740;DHT22;3407;49.882;10.920;2022-12-16T21:14:32;-3.10;1.00
6740;DHT22;3407;49.882;10.920;2022-12-16T21:19:46;-3.20;99.90
6740;DHT22;3407;49.882;10.920;2022-12-16T21:25:00;-3.30;1.00
6740;DHT22;3407;49.882;10.920;2022-12-16T21:30:14;-3.40;99.90
6740;DHT22;3407;49.882;10.920;2022-12-16T21:35:28;-3.50;1.00
6740;DHT22;3407;49.882;10.920;2022-12-16T21:40:44;-3.70;1.00
6740;DHT22;3407;49.882;10.920;2022-12-16T21:46:03;-3.80;1.00
6740;DHT22;3407;49.882;10.920;2022-12-16T21:51:17;-3.90;27.40
6740;DHT22;3407;49.882;10.920;2022-12-16T21:56:31;-4.00;1.00
6740;DHT22;3407;49.882;10.920;2022-12-16T22:01:45;-4.10;1.00
6740;DHT22;3407;49.882;10.920;2022-12-16T22:06:59;-4.20;99.90
6740;DHT22;3407;49.882;10.920;2022-12-16T22:12:13;-4.30;99.90
6740;DHT22;3407;49.882;10.920;2022-12-16T22:17:27;-4.40;99.90
6740;DHT22;3407;49.882;10.920;2022-12-16T22:22:41;-4.50;99.90
6740;DHT22;3407;49.882;10.920;2022-12-16T22:27:55;-4.60;99.90
6740;DHT22;3407;49.882;10.920;2022-12-16T22:33:12;-4.60;99.90
6740;DHT22;3407;49.882;10.920;2022-12-16T22:38:33;-4.70;1.00
6740;DHT22;3407;49.882;10.920;2022-12-16T22:43:52;-4.80;99.90
6740;DHT22;3407;49.882;10.920;2022-12-16T22:49:06;-4.80;99.90
6740;DHT22;3407;49.882;10.920;2022-12-16T22:54:20;-4.90;1.00
6740;DHT22;3407;49.882;10.920;2022-12-16T22:59:34;-4.90;99.90
6740;DHT22;3407;49.882;10.920;2022-12-16T23:04:48;-5.00;99.90
6740;DHT22;3407;49.882;10.920;2022-12-16T23:10:03;-5.10;99.90
6740;DHT22;3407;49.882;10.920;2022-12-16T23:15:17;-5.20;99.90
6740;DHT22;3407;49.882;10.920;2022-12-16T23:20:31;-5.30;1.00
6740;DHT22;3407;49.882;10.920;2022-12-16T23:25:59;-5.30;99.90
6740;DHT22;3407;49.882;10.920;2022-12-16T23:31:14;-5.40;1.00
6740;DHT22;3407;49.882;10.920;2022-12-16T23:36:29;-5.50;1.00
6740;DHT22;3407;49.882;10.920;2022-12-16T23:41:43;-5.50;1.00
6740;DHT22;3407;49.882;10.920;2022-12-16T23:46:57;-5.60;99.90
6740;DHT22;3407;49.882;10.920;2022-12-16T23:52:11;-5.60;99.90
6740;DHT22;3407;49.882;10.920;2022-12-16T23:57:25;-5.60;99.90
